sensor_id;sensor_type;location;lat;lon;timestamp;P1;durP1;ratioP1;P2;durP2;ratioP2
71975;SDS011;68326;52.124;5.424;2024-02-21T00:01:21;8.60;;;1.65;;
71975;SDS011;68326;52.124;5.424;2024-02-21T00:03:49;7.15;;;1.67;;
71975;SDS011;68326;52.124;5.424;2024-02-21T00:06:15;5.67;;;1.10;;
71975;SDS011;68326;52.124;5.424;2024-02-21T00:08:42;3.70;;;1.50;;
71975;SDS011;68326;52.124;5.424;2024-02-21T00:11:08;5.45;;;1.40;;
71975;SDS011;68326;52.124;5.424;2024-02-21T00:13:35;8.00;;;1.50;;
71975;SDS011;68326;52.124;5.424;2024-02-21T00:16:02;5.03;;;1.50;;
71975;SDS011;68326;52.124;5.424;2024-02-21T00:18:29;5.20;;;1.37;;
71975;SDS011;68326;52.124;5.424;2024-02-21T00:20:56;2.65;;;1.13;;
71975;SDS011;68326;52.124;5.424;2024-02-21T00:23:22;7.55;;;1.40;;
71975;SDS011;68326;52.124;5.424;2024-02-21T00:25:49;6.15;;;1.33;;
71975;SDS011;68326;52.124;5.424;2024-02-21T00:28:16;6.90;;;1.48;;
71975;SDS011;68326;52.124;5.424;2024-02-21T00:30:43;9.17;;;1.50;;
71975;SDS011;68326;52.124;5.424;2024-02-21T00:33:09;7.70;;;1.52;;
71975;SDS011;68326;52.124;5.424;2024-02-21T00:35:36;7.25;;;1.40;;
71975;SDS011;68326;52.124;5.424;2024-02-21T00:38:02;10.80;;;1.83;;
71975;SDS011;68326;52.124;5.424;2024-02-21T00:40:30;5.13;;;1.52;;
71975;SDS011;68326;52.124;5.424;2024-02-21T00:42:57;14.33;;;1.90;;
71975;SDS011;68326;52.124;5.424;2024-02-21T00:45:23;6.85;;;1.27;;
71975;SDS011;68326;52.124;5.424;2024-02-21T00:47:49;6.13;;;1.30;;
71975;SDS011;68326;52.124;5.424;2024-02-21T00:50:16;10.88;;;1.10;;
71975;SDS011;68326;52.124;5.424;2024-02-21T00:52:43;10.82;;;1.98;;
71975;SDS011;68326;52.124;5.424;2024-02-21T00:55:10;8.60;;;1.83;;
71975;SDS011;68326;52.124;5.424;2024-02-21T00:57:37;4.93;;;1.42;;
71975;SDS011;68326;52.124;5.424;2024-02-21T01:00:03;4.25;;;1.20;;
71975;SDS011;68326;52.124;5.424;2024-02-21T01:02:30;4.68;;;1.20;;
71975;SDS011;68326;52.124;5.424;2024-02-21T01:05:00;5.65;;;1.30;;
71975;SDS011;68326;52.124;5.424;2024-02-21T01:07:28;7.20;;;1.30;;
71975;SDS011;68326;52.124;5.424;2024-02-21T01:09:55;5.82;;;1.10;;
71975;SDS011;68326;52.124;5.424;2024-02-21T01:12:21;5.35;;;1.50;;
71975;SDS011;68326;52.124;5.424;2024-02-21T01:14:48;5.43;;;1.30;;
71975;SDS011;68326;52.124;5.424;2024-02-21T01:17:15;6.90;;;1.55;;
71975;SDS011;68326;52.124;5.424;2024-02-21T01:19:42;8.67;;;1.67;;
71975;SDS011;68326;52.124;5.424;2024-02-21T01:22:08;6.95;;;2.00;;
71975;SDS011;68326;52.124;5.424;2024-02-21T01:24:35;8.60;;;1.80;;
71975;SDS011;68326;52.124;5.424;2024-02-21T01:27:01;7.28;;;1.55;;
71975;SDS011;68326;52.124;5.424;2024-02-21T01:29:28;7.95;;;1.60;;
71975;SDS011;68326;52.124;5.424;2024-02-21T01:31:54;6.87;;;1.33;;
71975;SDS011;68326;52.124;5.424;2024-02-21T01:34:21;7.55;;;1.35;;
71975;SDS011;68326;52.124;5.424;2024-02-21T01:36:48;7.55;;;1.48;;
71975;SDS011;68326;52.124;5.424;2024-02-21T01:39:15;4.93;;;1.55;;
71975;SDS011;68326;52.124;5.424;2024-02-21T01:41:42;9.88;;;2.00;;
71975;SDS011;68326;52.124;5.424;2024-02-21T01:44:08;5.90;;;1.93;;
71975;SDS011;68326;52.124;5.424;2024-02-21T01:46:35;8.90;;;2.00;;
71975;SDS011;68326;52.124;5.424;2024-02-21T01:49:02;7.53;;;1.90;;
71975;SDS011;68326;52.124;5.424;2024-02-21T01:51:28;8.93;;;1.98;;
71975;SDS011;68326;52.124;5.424;2024-02-21T01:53:55;5.78;;;1.88;;
71975;SDS011;68326;52.124;5.424;2024-02-21T01:56:24;14.07;;;2.73;;
71975;SDS011;68326;52.124;5.424;2024-02-21T01:58:50;7.22;;;1.90;;
71975;SDS011;68326;52.124;5.424;2024-02-21T02:01:17;8.05;;;2.03;;
71975;SDS011;68326;52.124;5.424;2024-02-21T02:03:47;14.23;;;2.80;;
71975;SDS011;68326;52.124;5.424;2024-02-21T02:06:15;8.23;;;2.47;;
71975;SDS011;68326;52.124;5.424;2024-02-21T02:08:41;7.07;;;2.20;;
71975;SDS011;68326;52.124;5.424;2024-02-21T02:11:08;5.78;;;2.13;;
71975;SDS011;68326;52.124;5.424;2024-02-21T02:13:36;6.65;;;1.92;;
71975;SDS011;68326;52.124;5.424;2024-02-21T02:16:02;4.30;;;1.88;;
71975;SDS011;68326;52.124;5.424;2024-02-21T02:18:29;9.52;;;2.10;;
71975;SDS011;68326;52.124;5.424;2024-02-21T02:20:56;8.20;;;1.80;;
71975;SDS011;68326;52.124;5.424;2024-02-21T02:23:24;7.13;;;1.90;;
71975;SDS011;68326;52.124;5.424;2024-02-21T02:25:52;10.30;;;2.33;;
71975;SDS011;68326;52.124;5.424;2024-02-21T02:28:19;8.88;;;2.35;;
71975;SDS011;68326;52.124;5.424;2024-02-21T02:30:46;7.88;;;1.65;;
71975;SDS011;68326;52.124;5.424;2024-02-21T02:33:13;11.27;;;2.27;;
71975;SDS011;68326;52.124;5.424;2024-02-21T02:35:40;8.02;;;2.28;;
71975;SDS011;68326;52.124;5.424;2024-02-21T02:38:06;9.95;;;2.58;;
71975;SDS011;68326;52.124;5.424;2024-02-21T02:40:33;4.82;;;2.10;;
71975;SDS011;68326;52.124;5.424;2024-02-21T02:43:01;9.20;;;2.42;;
71975;SDS011;68326;52.124;5.424;2024-02-21T02:45:27;12.67;;;2.70;;
71975;SDS011;68326;52.124;5.424;2024-02-21T02:47:54;5.72;;;1.80;;
71975;SDS011;68326;52.124;5.424;2024-02-21T02:50:23;6.30;;;2.15;;
71975;SDS011;68326;52.124;5.424;2024-02-21T02:52:50;6.70;;;1.95;;
71975;SDS011;68326;52.124;5.424;2024-02-21T02:55:17;10.68;;;2.50;;
71975;SDS011;68326;52.124;5.424;2024-02-21T02:57:44;9.97;;;1.90;;
71975;SDS011;68326;52.124;5.424;2024-02-21T03:00:11;4.88;;;2.03;;
71975;SDS011;68326;52.124;5.424;2024-02-21T03:02:39;10.05;;;2.60;;
71975;SDS011;68326;52.124;5.424;2024-02-21T03:07:41;8.48;;;1.92;;
71975;SDS011;68326;52.124;5.424;2024-02-21T03:10:08;9.40;;;1.97;;
71975;SDS011;68326;52.124;5.424;2024-02-21T03:12:35;10.00;;;2.10;;
71975;SDS011;68326;52.124;5.424;2024-02-21T03:15:03;8.90;;;2.55;;
71975;SDS011;68326;52.124;5.424;2024-02-21T03:17:30;9.95;;;1.95;;
71975;SDS011;68326;52.124;5.424;2024-02-21T03:19:58;7.10;;;2.00;;
71975;SDS011;68326;52.124;5.424;2024-02-21T03:22:26;5.27;;;1.77;;
71975;SDS011;68326;52.124;5.424;2024-02-21T03:24:53;5.97;;;1.73;;
71975;SDS011;68326;52.124;5.424;2024-02-21T03:27:19;5.00;;;1.73;;
71975;SDS011;68326;52.124;5.424;2024-02-21T03:29:46;12.23;;;3.15;;
71975;SDS011;68326;52.124;5.424;2024-02-21T03:32:12;11.25;;;2.17;;
71975;SDS011;68326;52.124;5.424;2024-02-21T03:34:39;11.00;;;1.90;;
71975;SDS011;68326;52.124;5.424;2024-02-21T03:37:05;10.75;;;2.33;;
71975;SDS011;68326;52.124;5.424;2024-02-21T03:39:32;8.02;;;2.15;;
71975;SDS011;68326;52.124;5.424;2024-02-21T03:41:59;6.47;;;2.13;;
71975;SDS011;68326;52.124;5.424;2024-02-21T03:44:31;5.97;;;2.25;;
71975;SDS011;68326;52.124;5.424;2024-02-21T03:47:01;8.27;;;2.60;;
71975;SDS011;68326;52.124;5.424;2024-02-21T03:49:28;9.75;;;2.25;;
71975;SDS011;68326;52.124;5.424;2024-02-21T03:51:55;6.68;;;2.30;;
71975;SDS011;68326;52.124;5.424;2024-02-21T03:54:22;7.68;;;2.00;;
71975;SDS011;68326;52.124;5.424;2024-02-21T03:56:49;7.30;;;2.05;;
71975;SDS011;68326;52.124;5.424;2024-02-21T03:59:15;6.80;;;2.20;;
71975;SDS011;68326;52.124;5.424;2024-02-21T04:01:42;7.63;;;2.05;;
71975;SDS011;68326;52.124;5.424;2024-02-21T04:04:09;7.97;;;1.92;;
71975;SDS011;68326;52.124;5.424;2024-02-21T04:06:37;5.13;;;1.48;;
71975;SDS011;68326;52.124;5.424;2024-02-21T04:09:11;6.93;;;2.00;;
71975;SDS011;68326;52.124;5.424;2024-02-21T04:11:38;12.10;;;2.20;;
71975;SDS011;68326;52.124;5.424;2024-02-21T04:14:04;6.78;;;1.80;;
71975;SDS011;68326;52.124;5.424;2024-02-21T04:16:31;5.10;;;2.10;;
71975;SDS011;68326;52.124;5.424;2024-02-21T04:18:57;8.57;;;2.15;;
71975;SDS011;68326;52.124;5.424;2024-02-21T04:21:24;7.38;;;2.08;;
71975;SDS011;68326;52.124;5.424;2024-02-21T04:23:51;8.50;;;1.90;;
71975;SDS011;68326;52.124;5.424;2024-02-21T04:26:17;5.10;;;1.63;;
71975;SDS011;68326;52.124;5.424;2024-02-21T04:28:44;6.95;;;2.17;;
71975;SDS011;68326;52.124;5.424;2024-02-21T04:31:11;8.38;;;2.10;;
71975;SDS011;68326;52.124;5.424;2024-02-21T04:33:38;8.13;;;2.30;;
71975;SDS011;68326;52.124;5.424;2024-02-21T04:36:05;6.23;;;2.27;;
71975;SDS011;68326;52.124;5.424;2024-02-21T04:38:31;6.95;;;2.40;;
71975;SDS011;68326;52.124;5.424;2024-02-21T04:40:58;6.97;;;1.85;;
71975;SDS011;68326;52.124;5.424;2024-02-21T04:43:25;5.90;;;2.30;;
71975;SDS011;68326;52.124;5.424;2024-02-21T04:45:51;7.15;;;2.55;;
71975;SDS011;68326;52.124;5.424;2024-02-21T04:48:19;5.70;;;1.97;;
71975;SDS011;68326;52.124;5.424;2024-02-21T04:50:46;7.78;;;2.00;;
71975;SDS011;68326;52.124;5.424;2024-02-21T04:53:13;7.18;;;2.38;;
71975;SDS011;68326;52.124;5.424;2024-02-21T04:55:39;6.43;;;2.70;;
71975;SDS011;68326;52.124;5.424;2024-02-21T04:58:06;6.13;;;2.30;;
71975;SDS011;68326;52.124;5.424;2024-02-21T05:00:33;5.30;;;1.90;;
71975;SDS011;68326;52.124;5.424;2024-02-21T05:03:00;6.88;;;2.67;;
71975;SDS011;68326;52.124;5.424;2024-02-21T05:05:27;5.50;;;2.22;;
71975;SDS011;68326;52.124;5.424;2024-02-21T05:07:53;6.43;;;2.58;;
71975;SDS011;68326;52.124;5.424;2024-02-21T05:10:20;5.10;;;2.53;;
71975;SDS011;68326;52.124;5.424;2024-02-21T05:12:47;5.67;;;2.60;;
71975;SDS011;68326;52.124;5.424;2024-02-21T05:15:14;8.35;;;3.35;;
71975;SDS011;68326;52.124;5.424;2024-02-21T05:17:40;5.05;;;1.88;;
71975;SDS011;68326;52.124;5.424;2024-02-21T05:20:07;4.60;;;2.30;;
71975;SDS011;68326;52.124;5.424;2024-02-21T05:22:34;7.20;;;2.28;;
71975;SDS011;68326;52.124;5.424;2024-02-21T05:25:01;7.17;;;2.50;;
71975;SDS011;68326;52.124;5.424;2024-02-21T05:27:27;6.85;;;2.60;;
71975;SDS011;68326;52.124;5.424;2024-02-21T05:29:54;7.47;;;2.45;;
71975;SDS011;68326;52.124;5.424;2024-02-21T05:32:20;5.88;;;2.50;;
71975;SDS011;68326;52.124;5.424;2024-02-21T05:34:50;7.22;;;2.75;;
71975;SDS011;68326;52.124;5.424;2024-02-21T05:37:17;6.87;;;2.13;;
71975;SDS011;68326;52.124;5.424;2024-02-21T05:39:43;11.50;;;2.80;;
71975;SDS011;68326;52.124;5.424;2024-02-21T05:42:10;4.63;;;2.08;;
71975;SDS011;68326;52.124;5.424;2024-02-21T05:44:36;5.75;;;1.77;;
71975;SDS011;68326;52.124;5.424;2024-02-21T05:47:03;5.50;;;2.50;;
71975;SDS011;68326;52.124;5.424;2024-02-21T05:49:30;9.70;;;2.63;;
71975;SDS011;68326;52.124;5.424;2024-02-21T05:51:56;9.27;;;2.75;;
71975;SDS011;68326;52.124;5.424;2024-02-21T05:54:23;7.55;;;2.38;;
71975;SDS011;68326;52.124;5.424;2024-02-21T05:56:49;5.00;;;2.53;;
71975;SDS011;68326;52.124;5.424;2024-02-21T05:59:16;9.88;;;2.97;;
71975;SDS011;68326;52.124;5.424;2024-02-21T06:01:42;7.53;;;3.50;;
71975;SDS011;68326;52.124;5.424;2024-02-21T06:04:09;7.80;;;3.17;;
71975;SDS011;68326;52.124;5.424;2024-02-21T06:06:36;7.80;;;3.15;;
71975;SDS011;68326;52.124;5.424;2024-02-21T06:09:02;8.60;;;3.20;;
71975;SDS011;68326;52.124;5.424;2024-02-21T06:11:29;7.25;;;2.67;;
71975;SDS011;68326;52.124;5.424;2024-02-21T06:13:56;6.87;;;3.00;;
71975;SDS011;68326;52.124;5.424;2024-02-21T06:16:22;9.10;;;3.10;;
71975;SDS011;68326;52.124;5.424;2024-02-21T06:18:49;6.43;;;3.10;;
71975;SDS011;68326;52.124;5.424;2024-02-21T06:21:16;11.25;;;3.40;;
71975;SDS011;68326;52.124;5.424;2024-02-21T06:23:43;8.27;;;3.72;;
71975;SDS011;68326;52.124;5.424;2024-02-21T06:26:09;8.53;;;3.70;;
71975;SDS011;68326;52.124;5.424;2024-02-21T06:28:36;8.50;;;3.88;;
71975;SDS011;68326;52.124;5.424;2024-02-21T06:31:02;11.10;;;3.58;;
71975;SDS011;68326;52.124;5.424;2024-02-21T06:33:29;10.43;;;4.03;;
71975;SDS011;68326;52.124;5.424;2024-02-21T06:35:56;14.40;;;4.38;;
71975;SDS011;68326;52.124;5.424;2024-02-21T06:38:23;12.03;;;4.83;;
71975;SDS011;68326;52.124;5.424;2024-02-21T06:40:49;12.20;;;4.60;;
71975;SDS011;68326;52.124;5.424;2024-02-21T06:43:18;10.95;;;4.55;;
71975;SDS011;68326;52.124;5.424;2024-02-21T06:45:46;12.23;;;4.95;;
71975;SDS011;68326;52.124;5.424;2024-02-21T06:48:20;15.88;;;5.50;;
71975;SDS011;68326;52.124;5.424;2024-02-21T06:50:47;14.20;;;5.67;;
71975;SDS011;68326;52.124;5.424;2024-02-21T06:53:13;12.15;;;4.75;;
71975;SDS011;68326;52.124;5.424;2024-02-21T06:55:40;14.43;;;5.50;;
71975;SDS011;68326;52.124;5.424;2024-02-21T06:58:07;15.02;;;5.70;;
71975;SDS011;68326;52.124;5.424;2024-02-21T07:00:38;13.50;;;5.10;;
71975;SDS011;68326;52.124;5.424;2024-02-21T07:03:05;18.43;;;5.30;;
71975;SDS011;68326;52.124;5.424;2024-02-21T07:05:31;12.13;;;5.53;;
71975;SDS011;68326;52.124;5.424;2024-02-21T07:07:58;13.30;;;5.63;;
71975;SDS011;68326;52.124;5.424;2024-02-21T07:10:25;13.15;;;4.88;;
71975;SDS011;68326;52.124;5.424;2024-02-21T07:12:51;13.32;;;5.53;;
71975;SDS011;68326;52.124;5.424;2024-02-21T07:15:18;14.53;;;5.10;;
71975;SDS011;68326;52.124;5.424;2024-02-21T07:17:45;16.25;;;5.40;;
71975;SDS011;68326;52.124;5.424;2024-02-21T07:20:11;11.32;;;4.78;;
71975;SDS011;68326;52.124;5.424;2024-02-21T07:22:38;12.38;;;5.35;;
71975;SDS011;68326;52.124;5.424;2024-02-21T07:25:05;10.85;;;4.93;;
71975;SDS011;68326;52.124;5.424;2024-02-21T07:27:32;14.47;;;5.13;;
71975;SDS011;68326;52.124;5.424;2024-02-21T07:29:59;12.38;;;4.55;;
71975;SDS011;68326;52.124;5.424;2024-02-21T07:32:26;10.77;;;3.33;;
71975;SDS011;68326;52.124;5.424;2024-02-21T07:34:52;11.95;;;4.22;;
71975;SDS011;68326;52.124;5.424;2024-02-21T07:37:19;13.43;;;4.88;;
71975;SDS011;68326;52.124;5.424;2024-02-21T07:39:45;15.30;;;4.47;;
71975;SDS011;68326;52.124;5.424;2024-02-21T07:42:12;8.80;;;3.13;;
71975;SDS011;68326;52.124;5.424;2024-02-21T07:44:38;6.32;;;3.08;;
71975;SDS011;68326;52.124;5.424;2024-02-21T07:47:05;10.88;;;3.55;;
71975;SDS011;68326;52.124;5.424;2024-02-21T07:49:33;13.63;;;4.43;;
71975;SDS011;68326;52.124;5.424;2024-02-21T07:52:07;13.17;;;4.13;;
71975;SDS011;68326;52.124;5.424;2024-02-21T07:54:34;9.48;;;3.65;;
71975;SDS011;68326;52.124;5.424;2024-02-21T07:57:00;9.55;;;3.53;;
71975;SDS011;68326;52.124;5.424;2024-02-21T07:59:27;11.15;;;4.15;;
71975;SDS011;68326;52.124;5.424;2024-02-21T08:01:57;9.35;;;3.78;;
71975;SDS011;68326;52.124;5.424;2024-02-21T08:04:24;8.70;;;3.57;;
71975;SDS011;68326;52.124;5.424;2024-02-21T08:06:52;10.60;;;4.47;;
71975;SDS011;68326;52.124;5.424;2024-02-21T08:09:20;8.55;;;3.30;;
71975;SDS011;68326;52.124;5.424;2024-02-21T08:11:46;13.15;;;3.95;;
71975;SDS011;68326;52.124;5.424;2024-02-21T08:14:13;13.90;;;4.30;;
71975;SDS011;68326;52.124;5.424;2024-02-21T08:16:46;9.80;;;3.13;;
71975;SDS011;68326;52.124;5.424;2024-02-21T08:19:12;11.18;;;4.75;;
71975;SDS011;68326;52.124;5.424;2024-02-21T08:21:39;10.68;;;4.10;;
71975;SDS011;68326;52.124;5.424;2024-02-21T08:24:06;11.18;;;4.60;;
71975;SDS011;68326;52.124;5.424;2024-02-21T08:26:32;11.68;;;4.22;;
71975;SDS011;68326;52.124;5.424;2024-02-21T08:28:59;14.23;;;5.50;;
71975;SDS011;68326;52.124;5.424;2024-02-21T08:31:27;11.00;;;4.28;;
71975;SDS011;68326;52.124;5.424;2024-02-21T08:33:58;12.20;;;3.95;;
71975;SDS011;68326;52.124;5.424;2024-02-21T08:36:31;11.32;;;4.70;;
71975;SDS011;68326;52.124;5.424;2024-02-21T08:39:01;10.48;;;4.65;;
71975;SDS011;68326;52.124;5.424;2024-02-21T08:41:31;13.13;;;4.40;;
71975;SDS011;68326;52.124;5.424;2024-02-21T08:44:17;16.08;;;5.43;;
71975;SDS011;68326;52.124;5.424;2024-02-21T08:46:44;12.32;;;4.97;;
71975;SDS011;68326;52.124;5.424;2024-02-21T08:49:10;12.75;;;4.40;;
71975;SDS011;68326;52.124;5.424;2024-02-21T08:51:37;10.77;;;4.50;;
71975;SDS011;68326;52.124;5.424;2024-02-21T08:54:04;7.47;;;3.23;;
71975;SDS011;68326;52.124;5.424;2024-02-21T08:56:30;12.70;;;4.35;;
71975;SDS011;68326;52.124;5.424;2024-02-21T08:58:58;13.77;;;4.80;;
71975;SDS011;68326;52.124;5.424;2024-02-21T09:01:25;9.57;;;3.80;;
71975;SDS011;68326;52.124;5.424;2024-02-21T09:03:53;13.20;;;4.07;;
71975;SDS011;68326;52.124;5.424;2024-02-21T09:06:20;12.10;;;5.13;;
71975;SDS011;68326;52.124;5.424;2024-02-21T09:08:47;10.60;;;4.15;;
71975;SDS011;68326;52.124;5.424;2024-02-21T09:11:14;10.30;;;3.55;;
71975;SDS011;68326;52.124;5.424;2024-02-21T09:13:41;11.32;;;4.20;;
71975;SDS011;68326;52.124;5.424;2024-02-21T09:16:08;12.45;;;4.13;;
71975;SDS011;68326;52.124;5.424;2024-02-21T09:18:35;7.57;;;3.97;;
71975;SDS011;68326;52.124;5.424;2024-02-21T09:21:02;10.55;;;3.78;;
71975;SDS011;68326;52.124;5.424;2024-02-21T09:23:29;15.10;;;4.43;;
71975;SDS011;68326;52.124;5.424;2024-02-21T09:25:55;10.90;;;4.07;;
71975;SDS011;68326;52.124;5.424;2024-02-21T09:28:22;12.00;;;3.42;;
71975;SDS011;68326;52.124;5.424;2024-02-21T09:30:49;12.30;;;3.60;;
71975;SDS011;68326;52.124;5.424;2024-02-21T09:33:15;9.13;;;3.47;;
71975;SDS011;68326;52.124;5.424;2024-02-21T09:35:57;8.73;;;3.78;;
71975;SDS011;68326;52.124;5.424;2024-02-21T09:38:23;11.65;;;3.95;;
71975;SDS011;68326;52.124;5.424;2024-02-21T09:40:58;9.63;;;3.70;;
71975;SDS011;68326;52.124;5.424;2024-02-21T09:43:29;4.37;;;1.87;;
71975;SDS011;68326;52.124;5.424;2024-02-21T09:45:56;9.55;;;3.40;;
71975;SDS011;68326;52.124;5.424;2024-02-21T09:51:08;11.25;;;3.60;;
71975;SDS011;68326;52.124;5.424;2024-02-21T09:53:37;7.28;;;3.00;;
71975;SDS011;68326;52.124;5.424;2024-02-21T09:56:06;11.23;;;2.90;;
71975;SDS011;68326;52.124;5.424;2024-02-21T09:58:35;8.93;;;3.10;;
71975;SDS011;68326;52.124;5.424;2024-02-21T10:01:03;7.53;;;2.80;;
71975;SDS011;68326;52.124;5.424;2024-02-21T10:03:46;9.35;;;3.53;;
71975;SDS011;68326;52.124;5.424;2024-02-21T10:06:13;8.63;;;3.08;;
71975;SDS011;68326;52.124;5.424;2024-02-21T10:08:39;6.50;;;2.67;;
71975;SDS011;68326;52.124;5.424;2024-02-21T10:11:06;9.77;;;3.38;;
71975;SDS011;68326;52.124;5.424;2024-02-21T10:13:35;8.13;;;3.20;;
71975;SDS011;68326;52.124;5.424;2024-02-21T10:16:02;7.05;;;2.85;;
71975;SDS011;68326;52.124;5.424;2024-02-21T10:18:29;6.82;;;2.92;;
71975;SDS011;68326;52.124;5.424;2024-02-21T10:20:59;7.80;;;2.83;;
71975;SDS011;68326;52.124;5.424;2024-02-21T10:23:27;6.75;;;2.30;;
71975;SDS011;68326;52.124;5.424;2024-02-21T10:25:53;6.78;;;2.78;;
71975;SDS011;68326;52.124;5.424;2024-02-21T10:28:20;5.93;;;2.20;;
71975;SDS011;68326;52.124;5.424;2024-02-21T10:30:52;3.95;;;1.80;;
71975;SDS011;68326;52.124;5.424;2024-02-21T10:33:19;4.70;;;1.90;;
71975;SDS011;68326;52.124;5.424;2024-02-21T10:35:47;6.30;;;3.00;;
71975;SDS011;68326;52.124;5.424;2024-02-21T10:38:13;7.50;;;2.42;;
71975;SDS011;68326;52.124;5.424;2024-02-21T10:40:40;6.72;;;2.83;;
71975;SDS011;68326;52.124;5.424;2024-02-21T10:43:08;5.22;;;1.65;;
71975;SDS011;68326;52.124;5.424;2024-02-21T10:45:38;4.67;;;2.23;;
71975;SDS011;68326;52.124;5.424;2024-02-21T10:48:12;5.50;;;2.30;;
71975;SDS011;68326;52.124;5.424;2024-02-21T10:56:32;5.18;;;2.42;;
71975;SDS011;68326;52.124;5.424;2024-02-21T10:59:07;6.00;;;2.13;;
71975;SDS011;68326;52.124;5.424;2024-02-21T11:01:34;3.55;;;1.95;;
71975;SDS011;68326;52.124;5.424;2024-02-21T11:04:06;5.60;;;2.10;;
71975;SDS011;68326;52.124;5.424;2024-02-21T11:06:35;4.55;;;2.15;;
71975;SDS011;68326;52.124;5.424;2024-02-21T11:09:07;4.28;;;2.28;;
71975;SDS011;68326;52.124;5.424;2024-02-21T11:11:43;4.00;;;1.70;;
71975;SDS011;68326;52.124;5.424;2024-02-21T11:16:43;4.10;;;1.88;;
71975;SDS011;68326;52.124;5.424;2024-02-21T11:19:18;5.53;;;2.05;;
71975;SDS011;68326;52.124;5.424;2024-02-21T11:21:50;6.82;;;2.75;;
71975;SDS011;68326;52.124;5.424;2024-02-21T11:24:30;4.60;;;2.67;;
71975;SDS011;68326;52.124;5.424;2024-02-21T11:29:40;4.85;;;2.80;;
71975;SDS011;68326;52.124;5.424;2024-02-21T11:32:09;5.85;;;2.70;;
71975;SDS011;68326;52.124;5.424;2024-02-21T11:34:39;6.13;;;2.53;;
71975;SDS011;68326;52.124;5.424;2024-02-21T11:37:13;7.07;;;2.80;;
71975;SDS011;68326;52.124;5.424;2024-02-21T11:39:43;5.97;;;2.75;;
71975;SDS011;68326;52.124;5.424;2024-02-21T11:42:10;5.13;;;2.75;;
71975;SDS011;68326;52.124;5.424;2024-02-21T11:44:38;6.72;;;2.95;;
71975;SDS011;68326;52.124;5.424;2024-02-21T11:47:06;6.72;;;2.90;;
71975;SDS011;68326;52.124;5.424;2024-02-21T11:49:37;5.47;;;2.80;;
71975;SDS011;68326;52.124;5.424;2024-02-21T11:52:05;6.63;;;3.40;;
71975;SDS011;68326;52.124;5.424;2024-02-21T11:54:33;7.75;;;3.20;;
71975;SDS011;68326;52.124;5.424;2024-02-21T11:57:00;8.10;;;3.08;;
71975;SDS011;68326;52.124;5.424;2024-02-21T11:59:29;5.68;;;2.72;;
71975;SDS011;68326;52.124;5.424;2024-02-21T12:01:57;9.27;;;3.60;;
71975;SDS011;68326;52.124;5.424;2024-02-21T12:04:24;6.05;;;2.85;;
71975;SDS011;68326;52.124;5.424;2024-02-21T12:06:54;6.93;;;3.10;;
71975;SDS011;68326;52.124;5.424;2024-02-21T12:09:22;5.28;;;3.20;;
71975;SDS011;68326;52.124;5.424;2024-02-21T12:11:56;7.63;;;3.22;;
71975;SDS011;68326;52.124;5.424;2024-02-21T12:14:25;8.33;;;2.80;;
71975;SDS011;68326;52.124;5.424;2024-02-21T12:16:52;6.35;;;3.10;;
71975;SDS011;68326;52.124;5.424;2024-02-21T12:19:18;6.78;;;3.47;;
71975;SDS011;68326;52.124;5.424;2024-02-21T12:21:47;7.55;;;3.35;;
71975;SDS011;68326;52.124;5.424;2024-02-21T12:24:22;7.28;;;3.13;;
71975;SDS011;68326;52.124;5.424;2024-02-21T12:26:54;6.90;;;2.50;;
71975;SDS011;68326;52.124;5.424;2024-02-21T12:29:21;6.13;;;2.80;;
71975;SDS011;68326;52.124;5.424;2024-02-21T12:31:48;10.60;;;3.30;;
71975;SDS011;68326;52.124;5.424;2024-02-21T12:34:15;4.65;;;2.72;;
71975;SDS011;68326;52.124;5.424;2024-02-21T12:36:56;5.63;;;3.15;;
71975;SDS011;68326;52.124;5.424;2024-02-21T12:39:22;2.47;;;1.00;;
71975;SDS011;68326;52.124;5.424;2024-02-21T12:41:49;4.25;;;1.65;;
71975;SDS011;68326;52.124;5.424;2024-02-21T12:44:15;4.70;;;3.03;;
71975;SDS011;68326;52.124;5.424;2024-02-21T12:46:44;7.05;;;2.75;;
71975;SDS011;68326;52.124;5.424;2024-02-21T12:49:11;7.00;;;3.00;;
71975;SDS011;68326;52.124;5.424;2024-02-21T12:51:37;6.30;;;2.80;;
71975;SDS011;68326;52.124;5.424;2024-02-21T12:54:05;5.18;;;2.85;;
71975;SDS011;68326;52.124;5.424;2024-02-21T12:56:32;10.27;;;3.03;;
71975;SDS011;68326;52.124;5.424;2024-02-21T12:58:58;6.30;;;2.97;;
71975;SDS011;68326;52.124;5.424;2024-02-21T13:01:25;7.70;;;2.80;;
71975;SDS011;68326;52.124;5.424;2024-02-21T13:03:52;5.10;;;2.60;;
71975;SDS011;68326;52.124;5.424;2024-02-21T13:06:20;5.78;;;2.85;;
71975;SDS011;68326;52.124;5.424;2024-02-21T13:08:47;4.35;;;2.40;;
71975;SDS011;68326;52.124;5.424;2024-02-21T13:11:13;5.82;;;2.72;;
71975;SDS011;68326;52.124;5.424;2024-02-21T13:13:40;2.88;;;1.58;;
71975;SDS011;68326;52.124;5.424;2024-02-21T13:16:06;6.03;;;2.20;;
71975;SDS011;68326;52.124;5.424;2024-02-21T13:18:34;5.50;;;2.30;;
71975;SDS011;68326;52.124;5.424;2024-02-21T13:21:01;8.52;;;2.40;;
71975;SDS011;68326;52.124;5.424;2024-02-21T13:23:28;7.10;;;2.28;;
71975;SDS011;68326;52.124;5.424;2024-02-21T13:25:55;5.20;;;2.53;;
71975;SDS011;68326;52.124;5.424;2024-02-21T13:28:21;5.13;;;2.30;;
71975;SDS011;68326;52.124;5.424;2024-02-21T13:30:48;8.93;;;3.08;;
71975;SDS011;68326;52.124;5.424;2024-02-21T13:33:15;4.82;;;2.13;;
71975;SDS011;68326;52.124;5.424;2024-02-21T13:35:42;4.32;;;2.03;;
71975;SDS011;68326;52.124;5.424;2024-02-21T13:38:09;5.25;;;2.22;;
71975;SDS011;68326;52.124;5.424;2024-02-21T13:40:37;3.33;;;1.53;;
71975;SDS011;68326;52.124;5.424;2024-02-21T13:43:03;3.90;;;1.75;;
71975;SDS011;68326;52.124;5.424;2024-02-21T13:45:30;5.07;;;1.63;;
71975;SDS011;68326;52.124;5.424;2024-02-21T13:47:57;5.72;;;1.90;;
71975;SDS011;68326;52.124;5.424;2024-02-21T13:50:27;3.72;;;1.60;;
71975;SDS011;68326;52.124;5.424;2024-02-21T13:52:57;4.60;;;1.97;;
71975;SDS011;68326;52.124;5.424;2024-02-21T13:55:24;5.07;;;2.20;;
71975;SDS011;68326;52.124;5.424;2024-02-21T13:57:54;8.50;;;2.25;;
71975;SDS011;68326;52.124;5.424;2024-02-21T14:00:20;4.03;;;1.70;;
71975;SDS011;68326;52.124;5.424;2024-02-21T14:02:47;7.40;;;1.77;;
71975;SDS011;68326;52.124;5.424;2024-02-21T14:05:14;7.57;;;2.23;;
71975;SDS011;68326;52.124;5.424;2024-02-21T14:07:40;6.95;;;1.50;;
71975;SDS011;68326;52.124;5.424;2024-02-21T14:10:08;3.08;;;0.95;;
71975;SDS011;68326;52.124;5.424;2024-02-21T14:12:35;4.90;;;1.60;;
71975;SDS011;68326;52.124;5.424;2024-02-21T14:15:02;5.05;;;1.52;;
71975;SDS011;68326;52.124;5.424;2024-02-21T14:17:29;4.57;;;1.70;;
71975;SDS011;68326;52.124;5.424;2024-02-21T14:19:56;5.35;;;1.50;;
71975;SDS011;68326;52.124;5.424;2024-02-21T14:22:22;6.97;;;1.70;;
71975;SDS011;68326;52.124;5.424;2024-02-21T14:24:49;3.67;;;1.35;;
71975;SDS011;68326;52.124;5.424;2024-02-21T14:27:15;3.80;;;1.35;;
71975;SDS011;68326;52.124;5.424;2024-02-21T14:29:42;2.67;;;1.53;;
71975;SDS011;68326;52.124;5.424;2024-02-21T14:32:09;6.07;;;2.00;;
71975;SDS011;68326;52.124;5.424;2024-02-21T14:34:36;5.18;;;1.77;;
71975;SDS011;68326;52.124;5.424;2024-02-21T14:37:03;6.07;;;1.30;;
71975;SDS011;68326;52.124;5.424;2024-02-21T14:39:30;8.20;;;1.85;;
71975;SDS011;68326;52.124;5.424;2024-02-21T14:41:58;4.90;;;1.37;;
71975;SDS011;68326;52.124;5.424;2024-02-21T14:44:26;3.40;;;1.58;;
71975;SDS011;68326;52.124;5.424;2024-02-21T14:46:53;6.20;;;1.70;;
71975;SDS011;68326;52.124;5.424;2024-02-21T14:49:20;5.20;;;1.13;;
71975;SDS011;68326;52.124;5.424;2024-02-21T14:51:47;4.95;;;1.40;;
71975;SDS011;68326;52.124;5.424;2024-02-21T14:54:14;3.27;;;1.07;;
71975;SDS011;68326;52.124;5.424;2024-02-21T14:56:40;5.53;;;1.20;;
71975;SDS011;68326;52.124;5.424;2024-02-21T14:59:07;4.10;;;1.20;;
71975;SDS011;68326;52.124;5.424;2024-02-21T15:01:43;5.45;;;1.20;;
71975;SDS011;68326;52.124;5.424;2024-02-21T15:04:09;5.78;;;1.77;;